Time;durP1;ratioP1;P1;durP2;ratioP2;P2;SDS_P1;SDS_P2;PMS_P1;PMS_P2;Temp;Humidity;BMP_temperature;BMP_pressure;BME280_temperature;BME280_humidity;BME280_pressure;Samples;Min_cycle;Max_cycle;Signal;HPM_P1;HPM_P2
2022/03/16 00:01:15;;;;;;;560.95;508.51;;;;;;;;;;;;;-60
2022/03/16 00:04:15;;;;;;;560.67;508.31;;;;;;;;;;;;;-60
2022/03/16 00:07:16;;;;;;;560.72;508.33;;;;;;;;;;;;;-60
2022/03/16 00:10:15;;;;;;;557.91;505.81;;;;;;;;;;;;;-56
2022/03/16 00:13:15;;;;;;;559.04;506.81;;;;;;;;;;;;;-60
2022/03/16 00:16:15;;;;;;;558.82;506.43;;;;;;;;;;;;;-60
2022/03/16 00:19:15;;;;;;;553.56;501.55;;;;;;;;;;;;;-60
2022/03/16 00:22:15;;;;;;;559.02;506.83;;;;;;;;;;;;;-60
2022/03/16 00:25:15;;;;;;;557.55;505.27;;;;;;;;;;;;;-60
2022/03/16 00:28:15;;;;;;;554.57;502.49;;;;;;;;;;;;;-60
2022/03/16 00:31:15;;;;;;;553.71;501.63;;;;;;;;;;;;;-60
2022/03/16 00:34:15;;;;;;;561.31;508.95;;;;;;;;;;;;;-60
2022/03/16 00:37:15;;;;;;;557.64;505.48;;;;;;;;;;;;;-60
2022/03/16 00:40:15;;;;;;;556.39;504.25;;;;;;;;;;;;;-60
2022/03/16 00:43:15;;;;;;;559.87;507.66;;;;;;;;;;;;;-57
2022/03/16 00:46:15;;;;;;;556.63;504.40;;;;;;;;;;;;;-57
2022/03/16 00:49:15;;;;;;;554.98;502.74;;;;;;;;;;;;;-57
2022/03/16 00:52:15;;;;;;;553.13;501.08;;;;;;;;;;;;;-55
2022/03/16 00:55:15;;;;;;;555.07;503.02;;;;;;;;;;;;;-55
2022/03/16 00:58:15;;;;;;;552.17;500.14;;;;;;;;;;;;;-55
2022/03/16 01:01:15;;;;;;;552.70;500.61;;;;;;;;;;;;;-56
2022/03/16 01:04:15;;;;;;;554.31;502.15;;;;;;;;;;;;;-56
2022/03/16 01:07:15;;;;;;;554.82;502.59;;;;;;;;;;;;;-55
2022/03/16 01:10:15;;;;;;;552.72;500.69;;;;;;;;;;;;;-57
2022/03/16 01:13:15;;;;;;;552.94;500.87;;;;;;;;;;;;;-57
2022/03/16 01:16:15;;;;;;;552.35;500.33;;;;;;;;;;;;;-57
2022/03/16 01:19:15;;;;;;;552.73;500.54;;;;;;;;;;;;;-57
2022/03/16 01:22:15;;;;;;;551.17;499.13;;;;;;;;;;;;;-55
2022/03/16 01:25:15;;;;;;;553.61;501.47;;;;;;;;;;;;;-54
2022/03/16 01:28:15;;;;;;;551.16;499.11;;;;;;;;;;;;;-55
2022/03/16 01:31:15;;;;;;;551.08;499.13;;;;;;;;;;;;;-55
2022/03/16 01:34:16;;;;;;;548.13;496.19;;;;;;;;;;;;;-55
2022/03/16 01:37:15;;;;;;;548.35;496.37;;;;;;;;;;;;;-54
2022/03/16 01:40:15;;;;;;;545.55;493.70;;;;;;;;;;;;;-60
2022/03/16 01:43:15;;;;;;;545.01;493.28;;;;;;;;;;;;;-60
2022/03/16 01:46:15;;;;;;;550.97;499.05;;;;;;;;;;;;;-60
2022/03/16 01:49:15;;;;;;;552.26;500.24;;;;;;;;;;;;;-56
2022/03/16 01:52:15;;;;;;;548.85;496.85;;;;;;;;;;;;;-55
2022/03/16 01:55:15;;;;;;;551.37;499.39;;;;;;;;;;;;;-56
2022/03/16 01:58:17;;;;;;;548.50;496.52;;;;;;;;;;;;;-60
2022/03/16 02:01:15;;;;;;;545.99;494.26;;;;;;;;;;;;;-56
2022/03/16 02:04:15;;;;;;;544.64;492.89;;;;;;;;;;;;;-60
2022/03/16 02:07:15;;;;;;;544.21;492.50;;;;;;;;;;;;;-60
2022/03/16 02:10:16;;;;;;;545.13;493.33;;;;;;;;;;;;;-60
2022/03/16 02:13:15;;;;;;;545.52;493.75;;;;;;;;;;;;;-55
2022/03/16 02:16:15;;;;;;;540.45;488.93;;;;;;;;;;;;;-54
2022/03/16 02:19:15;;;;;;;542.07;490.47;;;;;;;;;;;;;-55
2022/03/16 02:22:16;;;;;;;547.09;495.14;;;;;;;;;;;;;-60
2022/03/16 02:25:16;;;;;;;550.48;498.57;;;;;;;;;;;;;-59
2022/03/16 02:28:15;;;;;;;550.97;498.84;;;;;;;;;;;;;-59
2022/03/16 02:31:17;;;;;;;551.25;499.15;;;;;;;;;;;;;-60
2022/03/16 02:34:15;;;;;;;551.39;499.21;;;;;;;;;;;;;-61
2022/03/16 02:37:15;;;;;;;551.99;499.77;;;;;;;;;;;;;-60
2022/03/16 02:40:16;;;;;;;549.64;497.64;;;;;;;;;;;;;-58
2022/03/16 02:43:15;;;;;;;548.49;496.51;;;;;;;;;;;;;-57
2022/03/16 02:46:15;;;;;;;549.95;497.89;;;;;;;;;;;;;-56
2022/03/16 02:49:16;;;;;;;547.85;495.83;;;;;;;;;;;;;-55
2022/03/16 02:52:15;;;;;;;548.43;496.47;;;;;;;;;;;;;-55
2022/03/16 02:55:15;;;;;;;548.85;496.82;;;;;;;;;;;;;-56
2022/03/16 02:58:15;;;;;;;549.59;497.55;;;;;;;;;;;;;-56
2022/03/16 03:01:15;;;;;;;546.51;494.59;;;;;;;;;;;;;-57
2022/03/16 03:04:15;;;;;;;550.79;498.73;;;;;;;;;;;;;-57
2022/03/16 03:07:15;;;;;;;546.32;494.44;;;;;;;;;;;;;-57
2022/03/16 03:10:15;;;;;;;547.58;495.61;;;;;;;;;;;;;-56
2022/03/16 03:13:15;;;;;;;545.93;494.01;;;;;;;;;;;;;-60
2022/03/16 03:16:15;;;;;;;547.35;495.45;;;;;;;;;;;;;-60
2022/03/16 03:19:15;;;;;;;543.03;491.28;;;;;;;;;;;;;-60
2022/03/16 03:22:15;;;;;;;545.83;493.99;;;;;;;;;;;;;-60
2022/03/16 03:25:15;;;;;;;544.15;492.32;;;;;;;;;;;;;-60
2022/03/16 03:28:16;;;;;;;545.51;493.61;;;;;;;;;;;;;-60
2022/03/16 03:31:15;;;;;;;546.36;494.43;;;;;;;;;;;;;-60
2022/03/16 03:34:15;;;;;;;545.21;493.33;;;;;;;;;;;;;-60
2022/03/16 03:37:15;;;;;;;545.22;493.28;;;;;;;;;;;;;-60
2022/03/16 03:40:15;;;;;;;544.27;492.54;;;;;;;;;;;;;-60
2022/03/16 03:43:15;;;;;;;544.17;492.18;;;;;;;;;;;;;-60
2022/03/16 03:46:15;;;;;;;542.72;490.91;;;;;;;;;;;;;-56
2022/03/16 03:49:15;;;;;;;541.52;489.84;;;;;;;;;;;;;-56
2022/03/16 03:52:15;;;;;;;544.02;492.03;;;;;;;;;;;;;-57
2022/03/16 03:55:15;;;;;;;543.03;491.30;;;;;;;;;;;;;-60
2022/03/16 03:58:15;;;;;;;545.23;493.53;;;;;;;;;;;;;-56
2022/03/16 04:01:16;;;;;;;543.13;491.48;;;;;;;;;;;;;-55
2022/03/16 04:04:15;;;;;;;543.45;491.65;;;;;;;;;;;;;-56
2022/03/16 04:07:15;;;;;;;540.86;489.23;;;;;;;;;;;;;-57
2022/03/16 04:10:15;;;;;;;543.27;491.49;;;;;;;;;;;;;-60
2022/03/16 04:13:15;;;;;;;540.25;488.65;;;;;;;;;;;;;-60
2022/03/16 04:16:15;;;;;;;539.56;487.97;;;;;;;;;;;;;-60
2022/03/16 04:19:15;;;;;;;537.96;486.43;;;;;;;;;;;;;-54
2022/03/16 04:22:15;;;;;;;537.33;485.79;;;;;;;;;;;;;-55
2022/03/16 04:25:15;;;;;;;537.79;486.13;;;;;;;;;;;;;-60
2022/03/16 04:28:15;;;;;;;537.76;486.15;;;;;;;;;;;;;-60
2022/03/16 04:31:15;;;;;;;537.41;485.80;;;;;;;;;;;;;-55
2022/03/16 04:34:15;;;;;;;535.91;484.49;;;;;;;;;;;;;-56
2022/03/16 04:37:15;;;;;;;532.57;481.17;;;;;;;;;;;;;-60
2022/03/16 04:40:15;;;;;;;534.56;483.12;;;;;;;;;;;;;-60
2022/03/16 04:43:15;;;;;;;536.87;485.41;;;;;;;;;;;;;-60
2022/03/16 04:46:15;;;;;;;537.81;486.29;;;;;;;;;;;;;-54
2022/03/16 04:49:15;;;;;;;536.30;484.83;;;;;;;;;;;;;-55
2022/03/16 04:52:15;;;;;;;540.33;488.59;;;;;;;;;;;;;-56
2022/03/16 04:55:15;;;;;;;537.42;485.87;;;;;;;;;;;;;-55
2022/03/16 04:58:15;;;;;;;536.28;484.80;;;;;;;;;;;;;-56
2022/03/16 05:01:15;;;;;;;530.57;479.37;;;;;;;;;;;;;-55
2022/03/16 05:04:15;;;;;;;534.14;482.70;;;;;;;;;;;;;-60
2022/03/16 05:07:15;;;;;;;530.67;479.45;;;;;;;;;;;;;-60
2022/03/16 05:10:16;;;;;;;533.89;482.23;;;;;;;;;;;;;-64
2022/03/16 05:13:15;;;;;;;536.17;484.80;;;;;;;;;;;;;-61
2022/03/16 05:16:15;;;;;;;534.77;483.42;;;;;;;;;;;;;-60
2022/03/16 05:19:15;;;;;;;533.53;482.23;;;;;;;;;;;;;-63
2022/03/16 05:22:15;;;;;;;537.69;486.23;;;;;;;;;;;;;-60
2022/03/16 05:25:15;;;;;;;537.51;485.97;;;;;;;;;;;;;-60
2022/03/16 05:28:16;;;;;;;540.71;489.01;;;;;;;;;;;;;-62
2022/03/16 05:31:15;;;;;;;535.69;484.09;;;;;;;;;;;;;-65
2022/03/16 05:34:15;;;;;;;533.91;482.56;;;;;;;;;;;;;-61
2022/03/16 05:37:15;;;;;;;530.98;479.76;;;;;;;;;;;;;-64
2022/03/16 05:40:15;;;;;;;532.18;480.85;;;;;;;;;;;;;-62
2022/03/16 05:43:15;;;;;;;539.42;487.90;;;;;;;;;;;;;-64
2022/03/16 05:46:15;;;;;;;542.67;490.85;;;;;;;;;;;;;-62
2022/03/16 05:49:15;;;;;;;536.30;484.37;;;;;;;;;;;;;-64
2022/03/16 06:01:15;;;;;;;511.77;461.03;;;;;;;;;;;;;-63
2022/03/16 06:04:15;;;;;;;520.01;468.97;;;;;;;;;;;;;-63
2022/03/16 06:07:15;;;;;;;530.01;478.53;;;;;;;;;;;;;-61
2022/03/16 06:16:21;;;;;;;540.12;486.99;;;;;;;;;;;;;-52
2022/03/16 06:26:15;;;;;;;524.94;473.81;;;;;;;;;;;;;-52
2022/03/16 06:29:15;;;;;;;526.11;474.95;;;;;;;;;;;;;-61
2022/03/16 06:32:15;;;;;;;530.44;479.16;;;;;;;;;;;;;-64
2022/03/16 06:41:15;;;;;;;506.19;455.79;;;;;;;;;;;;;-52
2022/03/16 06:44:15;;;;;;;517.91;467.04;;;;;;;;;;;;;-52
2022/03/16 06:47:15;;;;;;;530.08;478.79;;;;;;;;;;;;;-54
2022/03/16 06:50:15;;;;;;;530.76;479.47;;;;;;;;;;;;;-54
2022/03/16 06:57:15;;;;;;;522.35;471.43;;;;;;;;;;;;;-52
2022/03/16 07:00:15;;;;;;;528.15;477.09;;;;;;;;;;;;;-52
2022/03/16 07:03:15;;;;;;;527.51;476.39;;;;;;;;;;;;;-52
2022/03/16 07:06:15;;;;;;;528.48;477.19;;;;;;;;;;;;;-61
2022/03/16 07:09:15;;;;;;;529.85;478.59;;;;;;;;;;;;;-62
2022/03/16 07:12:15;;;;;;;530.39;479.13;;;;;;;;;;;;;-54
2022/03/16 07:15:15;;;;;;;532.43;481.09;;;;;;;;;;;;;-53
2022/03/16 07:18:16;;;;;;;531.88;480.55;;;;;;;;;;;;;-54
2022/03/16 07:21:15;;;;;;;529.92;478.63;;;;;;;;;;;;;-54
2022/03/16 07:24:15;;;;;;;525.05;473.99;;;;;;;;;;;;;-63
2022/03/16 07:31:15;;;;;;;519.31;468.42;;;;;;;;;;;;;-52
2022/03/16 07:34:15;;;;;;;525.84;474.84;;;;;;;;;;;;;-52
2022/03/16 07:37:15;;;;;;;525.77;474.69;;;;;;;;;;;;;-64
2022/03/16 07:40:15;;;;;;;525.65;474.07;;;;;;;;;;;;;-66
2022/03/16 07:43:16;;;;;;;521.52;470.49;;;;;;;;;;;;;-68
2022/03/16 07:46:15;;;;;;;523.17;472.21;;;;;;;;;;;;;-57
2022/03/16 07:49:15;;;;;;;523.39;472.36;;;;;;;;;;;;;-58
2022/03/16 07:52:15;;;;;;;523.00;471.99;;;;;;;;;;;;;-56
2022/03/16 07:55:16;;;;;;;515.94;465.23;;;;;;;;;;;;;-56
2022/03/16 07:58:15;;;;;;;521.92;470.95;;;;;;;;;;;;;-56
2022/03/16 08:01:15;;;;;;;521.65;470.71;;;;;;;;;;;;;-59
2022/03/16 08:04:15;;;;;;;518.33;467.52;;;;;;;;;;;;;-59
2022/03/16 08:07:15;;;;;;;518.70;467.83;;;;;;;;;;;;;-57
2022/03/16 08:10:15;;;;;;;515.72;464.96;;;;;;;;;;;;;-55
2022/03/16 08:13:15;;;;;;;518.83;468.09;;;;;;;;;;;;;-59
2022/03/16 08:16:15;;;;;;;520.90;470.05;;;;;;;;;;;;;-57
2022/03/16 08:19:15;;;;;;;518.17;467.43;;;;;;;;;;;;;-59
2022/03/16 08:22:15;;;;;;;518.99;468.33;;;;;;;;;;;;;-56
2022/03/16 08:25:15;;;;;;;516.51;465.71;;;;;;;;;;;;;-59
2022/03/16 08:28:15;;;;;;;516.30;465.75;;;;;;;;;;;;;-59
2022/03/16 08:31:15;;;;;;;520.73;469.99;;;;;;;;;;;;;-59
2022/03/16 08:34:15;;;;;;;522.74;471.89;;;;;;;;;;;;;-58
2022/03/16 08:37:15;;;;;;;522.11;471.20;;;;;;;;;;;;;-59
2022/03/16 08:40:16;;;;;;;520.11;469.33;;;;;;;;;;;;;-58
2022/03/16 08:43:15;;;;;;;518.53;467.89;;;;;;;;;;;;;-59
2022/03/16 08:46:15;;;;;;;517.97;467.29;;;;;;;;;;;;;-58
2022/03/16 08:49:16;;;;;;;519.93;469.11;;;;;;;;;;;;;-57
2022/03/16 08:52:15;;;;;;;521.66;470.75;;;;;;;;;;;;;-54
2022/03/16 08:55:15;;;;;;;523.76;472.85;;;;;;;;;;;;;-54
2022/03/16 08:58:16;;;;;;;524.75;473.35;;;;;;;;;;;;;-58
2022/03/16 09:01:15;;;;;;;528.41;476.97;;;;;;;;;;;;;-52
2022/03/16 09:04:15;;;;;;;522.55;471.43;;;;;;;;;;;;;-57
2022/03/16 09:07:15;;;;;;;523.63;472.55;;;;;;;;;;;;;-63
2022/03/16 09:10:15;;;;;;;526.75;475.61;;;;;;;;;;;;;-63
2022/03/16 09:13:15;;;;;;;520.51;469.40;;;;;;;;;;;;;-61
2022/03/16 09:16:15;;;;;;;528.45;477.24;;;;;;;;;;;;;-51
2022/03/16 09:19:15;;;;;;;530.01;478.67;;;;;;;;;;;;;-63
2022/03/16 09:22:15;;;;;;;529.24;477.95;;;;;;;;;;;;;-61
2022/03/16 09:25:15;;;;;;;532.42;481.17;;;;;;;;;;;;;-60
2022/03/16 09:28:15;;;;;;;532.29;481.01;;;;;;;;;;;;;-62
2022/03/16 09:31:15;;;;;;;536.89;485.47;;;;;;;;;;;;;-61
2022/03/16 09:34:15;;;;;;;538.45;486.95;;;;;;;;;;;;;-52
2022/03/16 09:37:15;;;;;;;542.17;490.41;;;;;;;;;;;;;-57
2022/03/16 09:40:15;;;;;;;540.37;488.65;;;;;;;;;;;;;-51
2022/03/16 09:43:15;;;;;;;542.18;490.63;;;;;;;;;;;;;-56
2022/03/16 09:46:15;;;;;;;539.00;487.67;;;;;;;;;;;;;-53
2022/03/16 09:49:15;;;;;;;545.05;493.27;;;;;;;;;;;;;-53
2022/03/16 09:52:15;;;;;;;542.72;491.02;;;;;;;;;;;;;-60
2022/03/16 09:55:17;;;;;;;549.61;497.60;;;;;;;;;;;;;-60
2022/03/16 09:58:15;;;;;;;548.74;497.00;;;;;;;;;;;;;-52
2022/03/16 10:01:15;;;;;;;549.32;497.15;;;;;;;;;;;;;-53
2022/03/16 10:04:15;;;;;;;550.97;499.01;;;;;;;;;;;;;-52
2022/03/16 10:07:15;;;;;;;553.69;501.63;;;;;;;;;;;;;-62
2022/03/16 10:13:18;;;;;;;557.39;505.24;;;;;;;;;;;;;-54
2022/03/16 10:16:15;;;;;;;561.77;509.35;;;;;;;;;;;;;-52
2022/03/16 10:19:15;;;;;;;561.73;509.50;;;;;;;;;;;;;-57
2022/03/16 10:22:15;;;;;;;565.35;512.97;;;;;;;;;;;;;-54
2022/03/16 10:25:15;;;;;;;568.61;516.08;;;;;;;;;;;;;-55
2022/03/16 10:28:16;;;;;;;566.91;514.47;;;;;;;;;;;;;-54
2022/03/16 10:31:18;;;;;;;568.19;515.55;;;;;;;;;;;;;-51
2022/03/16 10:34:15;;;;;;;557.92;505.53;;;;;;;;;;;;;-49
2022/03/16 10:37:15;;;;;;;566.87;514.35;;;;;;;;;;;;;-50
2022/03/16 10:40:18;;;;;;;564.69;512.29;;;;;;;;;;;;;-50
2022/03/16 10:49:16;;;;;;;568.10;515.59;;;;;;;;;;;;;-51
2022/03/16 10:52:17;;;;;;;569.32;516.81;;;;;;;;;;;;;-51
2022/03/16 10:55:15;;;;;;;568.49;515.11;;;;;;;;;;;;;-57
2022/03/16 10:58:15;;;;;;;569.71;516.11;;;;;;;;;;;;;-52
2022/03/16 11:01:15;;;;;;;567.17;513.70;;;;;;;;;;;;;-51
2022/03/16 11:04:16;;;;;;;569.42;516.37;;;;;;;;;;;;;-51
2022/03/16 11:07:15;;;;;;;569.21;516.50;;;;;;;;;;;;;-51
2022/03/16 11:10:15;;;;;;;571.56;518.65;;;;;;;;;;;;;-50
2022/03/16 11:13:32;;;;;;;578.04;524.63;;;;;;;;;;;;;-48
2022/03/16 11:16:15;;;;;;;576.37;523.15;;;;;;;;;;;;;-48
2022/03/16 11:19:17;;;;;;;580.70;527.19;;;;;;;;;;;;;-48
2022/03/16 11:22:15;;;;;;;572.47;519.37;;;;;;;;;;;;;-56
2022/03/16 11:25:15;;;;;;;573.98;520.95;;;;;;;;;;;;;-54
2022/03/16 11:28:15;;;;;;;571.33;518.53;;;;;;;;;;;;;-59
2022/03/16 11:31:16;;;;;;;570.91;517.95;;;;;;;;;;;;;-61
2022/03/16 11:34:15;;;;;;;572.07;519.39;;;;;;;;;;;;;-61
2022/03/16 11:37:15;;;;;;;573.34;520.63;;;;;;;;;;;;;-54
2022/03/16 11:40:16;;;;;;;574.88;522.11;;;;;;;;;;;;;-58
2022/03/16 11:43:15;;;;;;;571.25;518.60;;;;;;;;;;;;;-54
2022/03/16 11:46:15;;;;;;;572.19;519.32;;;;;;;;;;;;;-54
2022/03/16 11:49:15;;;;;;;570.91;518.14;;;;;;;;;;;;;-58
2022/03/16 11:52:15;;;;;;;573.19;520.29;;;;;;;;;;;;;-58
2022/03/16 11:55:15;;;;;;;581.69;528.67;;;;;;;;;;;;;-61
2022/03/16 11:58:15;;;;;;;574.99;522.16;;;;;;;;;;;;;-60
2022/03/16 12:01:15;;;;;;;573.75;520.96;;;;;;;;;;;;;-61
2022/03/16 12:04:15;;;;;;;576.03;523.10;;;;;;;;;;;;;-59
2022/03/16 12:07:15;;;;;;;577.91;524.74;;;;;;;;;;;;;-62
2022/03/16 12:10:16;;;;;;;574.93;522.07;;;;;;;;;;;;;-62
2022/03/16 12:13:16;;;;;;;579.46;526.37;;;;;;;;;;;;;-54
2022/03/16 12:16:16;;;;;;;580.70;527.64;;;;;;;;;;;;;-62
2022/03/16 12:19:15;;;;;;;579.11;526.22;;;;;;;;;;;;;-61
2022/03/16 12:22:15;;;;;;;581.12;528.07;;;;;;;;;;;;;-58
2022/03/16 12:25:15;;;;;;;579.64;526.51;;;;;;;;;;;;;-58
2022/03/16 12:31:15;;;;;;;577.11;524.13;;;;;;;;;;;;;-57
2022/03/16 12:34:16;;;;;;;580.10;526.92;;;;;;;;;;;;;-59
2022/03/16 12:37:15;;;;;;;580.64;527.62;;;;;;;;;;;;;-55
2022/03/16 12:40:15;;;;;;;582.88;529.85;;;;;;;;;;;;;-54
2022/03/16 12:43:16;;;;;;;577.87;524.92;;;;;;;;;;;;;-54
2022/03/16 12:46:15;;;;;;;581.25;528.20;;;;;;;;;;;;;-54
2022/03/16 12:49:15;;;;;;;580.01;527.11;;;;;;;;;;;;;-54
2022/03/16 12:52:15;;;;;;;580.93;527.83;;;;;;;;;;;;;-54
2022/03/16 12:55:17;;;;;;;579.72;526.72;;;;;;;;;;;;;-58
2022/03/16 12:58:15;;;;;;;576.45;523.65;;;;;;;;;;;;;-59
2022/03/16 13:01:15;;;;;;;584.07;530.91;;;;;;;;;;;;;-59
2022/03/16 13:04:16;;;;;;;585.66;532.31;;;;;;;;;;;;;-58
2022/03/16 13:07:15;;;;;;;586.91;533.45;;;;;;;;;;;;;-51
2022/03/16 13:10:15;;;;;;;588.25;534.94;;;;;;;;;;;;;-51
2022/03/16 13:13:19;;;;;;;587.18;533.85;;;;;;;;;;;;;-58
2022/03/16 13:16:15;;;;;;;591.97;538.49;;;;;;;;;;;;;-60
2022/03/16 13:21:15;;;;;;;575.90;522.97;;;;;;;;;;;;;-61
2022/03/16 13:24:15;;;;;;;588.87;535.46;;;;;;;;;;;;;-59
2022/03/16 13:27:15;;;;;;;595.23;541.60;;;;;;;;;;;;;-55
2022/03/16 13:30:19;;;;;;;597.81;544.05;;;;;;;;;;;;;-55
2022/03/16 13:33:16;;;;;;;600.43;546.58;;;;;;;;;;;;;-53
2022/03/16 13:36:15;;;;;;;603.05;549.11;;;;;;;;;;;;;-51
2022/03/16 13:39:33;;;;;;;602.41;548.39;;;;;;;;;;;;;-52
2022/03/16 13:42:15;;;;;;;606.17;551.77;;;;;;;;;;;;;-52
2022/03/16 13:45:15;;;;;;;606.59;552.55;;;;;;;;;;;;;-50
2022/03/16 13:48:16;;;;;;;608.59;554.27;;;;;;;;;;;;;-54
2022/03/16 13:51:15;;;;;;;608.97;554.85;;;;;;;;;;;;;-50
2022/03/16 13:54:20;;;;;;;610.83;556.54;;;;;;;;;;;;;-48
2022/03/16 13:57:15;;;;;;;608.61;554.59;;;;;;;;;;;;;-58
2022/03/16 14:00:15;;;;;;;614.21;559.78;;;;;;;;;;;;;-53
2022/03/16 14:03:15;;;;;;;613.04;558.65;;;;;;;;;;;;;-59
2022/03/16 14:06:15;;;;;;;612.01;557.61;;;;;;;;;;;;;-61
2022/03/16 14:09:15;;;;;;;610.40;556.15;;;;;;;;;;;;;-55
2022/03/16 14:12:15;;;;;;;611.67;557.41;;;;;;;;;;;;;-58
2022/03/16 14:15:16;;;;;;;609.51;555.31;;;;;;;;;;;;;-49
2022/03/16 14:18:30;;;;;;;612.51;558.08;;;;;;;;;;;;;-49
2022/03/16 14:21:15;;;;;;;607.83;553.68;;;;;;;;;;;;;-50
2022/03/16 14:24:15;;;;;;;612.99;558.41;;;;;;;;;;;;;-52
2022/03/16 14:27:26;;;;;;;610.36;556.11;;;;;;;;;;;;;-59
2022/03/16 14:30:16;;;;;;;600.05;546.01;;;;;;;;;;;;;-63
2022/03/16 14:33:15;;;;;;;594.71;540.54;;;;;;;;;;;;;-60
2022/03/16 14:36:26;;;;;;;594.81;541.07;;;;;;;;;;;;;-62
2022/03/16 14:39:15;;;;;;;598.07;544.25;;;;;;;;;;;;;-59
2022/03/16 14:42:16;;;;;;;601.75;547.73;;;;;;;;;;;;;-56
2022/03/16 14:45:15;;;;;;;605.33;551.19;;;;;;;;;;;;;-59
2022/03/16 14:48:15;;;;;;;602.96;548.99;;;;;;;;;;;;;-53
2022/03/16 14:51:15;;;;;;;608.28;553.99;;;;;;;;;;;;;-58
2022/03/16 14:54:15;;;;;;;608.19;553.94;;;;;;;;;;;;;-55
2022/03/16 14:57:15;;;;;;;608.09;553.89;;;;;;;;;;;;;-61
2022/03/16 15:00:15;;;;;;;612.08;557.79;;;;;;;;;;;;;-61
2022/03/16 15:03:15;;;;;;;610.50;556.16;;;;;;;;;;;;;-59
2022/03/16 15:06:15;;;;;;;608.59;554.17;;;;;;;;;;;;;-54
2022/03/16 15:09:15;;;;;;;615.83;561.30;;;;;;;;;;;;;-59
2022/03/16 15:12:15;;;;;;;616.77;562.26;;;;;;;;;;;;;-60
2022/03/16 15:15:15;;;;;;;611.19;556.87;;;;;;;;;;;;;-65
2022/03/16 15:18:15;;;;;;;613.73;559.35;;;;;;;;;;;;;-57
2022/03/16 15:21:15;;;;;;;618.37;563.76;;;;;;;;;;;;;-57
2022/03/16 15:24:15;;;;;;;615.33;560.94;;;;;;;;;;;;;-59
2022/03/16 15:27:15;;;;;;;614.55;560.07;;;;;;;;;;;;;-54
2022/03/16 15:30:15;;;;;;;615.13;560.63;;;;;;;;;;;;;-58
2022/03/16 15:33:15;;;;;;;613.81;559.37;;;;;;;;;;;;;-57
2022/03/16 15:36:15;;;;;;;619.49;564.85;;;;;;;;;;;;;-56
2022/03/16 15:39:15;;;;;;;618.83;564.31;;;;;;;;;;;;;-64
2022/03/16 15:45:15;;;;;;;618.93;564.33;;;;;;;;;;;;;-55
2022/03/16 15:48:16;;;;;;;607.95;553.47;;;;;;;;;;;;;-64
2022/03/16 15:51:15;;;;;;;605.79;551.70;;;;;;;;;;;;;-61
2022/03/16 15:54:15;;;;;;;605.25;551.16;;;;;;;;;;;;;-60
2022/03/16 15:57:15;;;;;;;605.52;551.21;;;;;;;;;;;;;-61
2022/03/16 16:00:15;;;;;;;606.41;552.10;;;;;;;;;;;;;-50
2022/03/16 16:03:15;;;;;;;608.89;554.53;;;;;;;;;;;;;-56
2022/03/16 16:06:15;;;;;;;606.23;552.11;;;;;;;;;;;;;-52
2022/03/16 16:09:17;;;;;;;600.87;547.03;;;;;;;;;;;;;-54
2022/03/16 16:12:15;;;;;;;602.60;548.52;;;;;;;;;;;;;-59
2022/03/16 16:15:15;;;;;;;603.60;549.29;;;;;;;;;;;;;-58
2022/03/16 16:18:15;;;;;;;600.01;545.86;;;;;;;;;;;;;-57
2022/03/16 16:21:15;;;;;;;606.62;552.30;;;;;;;;;;;;;-60
2022/03/16 16:24:15;;;;;;;610.26;555.52;;;;;;;;;;;;;-58
2022/03/16 16:27:15;;;;;;;614.85;560.15;;;;;;;;;;;;;-54
2022/03/16 16:30:21;;;;;;;612.13;557.77;;;;;;;;;;;;;-57
2022/03/16 16:33:15;;;;;;;616.83;561.72;;;;;;;;;;;;;-54
2022/03/16 16:36:16;;;;;;;612.23;557.67;;;;;;;;;;;;;-51
2022/03/16 16:39:16;;;;;;;612.45;558.09;;;;;;;;;;;;;-53
2022/03/16 16:45:16;;;;;;;617.55;562.57;;;;;;;;;;;;;-52
2022/03/16 16:48:18;;;;;;;620.25;565.49;;;;;;;;;;;;;-52
2022/03/16 16:51:16;;;;;;;611.30;556.53;;;;;;;;;;;;;-57
2022/03/16 16:54:15;;;;;;;614.41;559.73;;;;;;;;;;;;;-65
2022/03/16 16:57:16;;;;;;;615.36;560.76;;;;;;;;;;;;;-63
2022/03/16 17:00:15;;;;;;;615.63;561.03;;;;;;;;;;;;;-62
2022/03/16 17:03:15;;;;;;;620.60;565.62;;;;;;;;;;;;;-51
2022/03/16 17:06:15;;;;;;;622.97;567.76;;;;;;;;;;;;;-52
2022/03/16 17:09:17;;;;;;;621.85;567.11;;;;;;;;;;;;;-64
2022/03/16 17:12:16;;;;;;;621.17;566.42;;;;;;;;;;;;;-51
2022/03/16 17:15:15;;;;;;;619.72;565.15;;;;;;;;;;;;;-53
2022/03/16 17:18:16;;;;;;;619.95;565.28;;;;;;;;;;;;;-60
2022/03/16 17:21:15;;;;;;;624.34;569.43;;;;;;;;;;;;;-61
2022/03/16 17:24:15;;;;;;;622.17;567.16;;;;;;;;;;;;;-59
2022/03/16 17:27:16;;;;;;;621.72;566.82;;;;;;;;;;;;;-53
2022/03/16 17:30:17;;;;;;;616.16;561.59;;;;;;;;;;;;;-56
2022/03/16 17:33:16;;;;;;;611.65;557.19;;;;;;;;;;;;;-58
2022/03/16 17:36:15;;;;;;;613.50;558.99;;;;;;;;;;;;;-61
2022/03/16 17:39:15;;;;;;;621.02;566.14;;;;;;;;;;;;;-54
2022/03/16 17:48:15;;;;;;;625.60;570.70;;;;;;;;;;;;;-51
2022/03/16 17:51:15;;;;;;;622.91;568.18;;;;;;;;;;;;;-53
2022/03/16 17:54:15;;;;;;;624.18;569.36;;;;;;;;;;;;;-60
2022/03/16 17:57:15;;;;;;;628.01;573.00;;;;;;;;;;;;;-59
2022/03/16 18:00:18;;;;;;;620.07;565.42;;;;;;;;;;;;;-54
2022/03/16 18:03:16;;;;;;;625.73;570.69;;;;;;;;;;;;;-58
2022/03/16 18:06:17;;;;;;;618.03;563.11;;;;;;;;;;;;;-54
2022/03/16 18:09:15;;;;;;;624.35;569.42;;;;;;;;;;;;;-54
2022/03/16 18:15:15;;;;;;;622.44;567.39;;;;;;;;;;;;;-58
2022/03/16 18:18:15;;;;;;;622.86;567.85;;;;;;;;;;;;;-60
2022/03/16 18:21:15;;;;;;;627.69;572.59;;;;;;;;;;;;;-60
2022/03/16 18:24:15;;;;;;;627.57;571.53;;;;;;;;;;;;;-61
2022/03/16 18:27:15;;;;;;;627.37;572.19;;;;;;;;;;;;;-56
2022/03/16 18:30:16;;;;;;;626.11;570.97;;;;;;;;;;;;;-52
2022/03/16 18:33:29;;;;;;;629.54;574.41;;;;;;;;;;;;;-52
2022/03/16 18:36:15;;;;;;;626.65;571.57;;;;;;;;;;;;;-52
2022/03/16 18:39:15;;;;;;;630.18;574.88;;;;;;;;;;;;;-59
2022/03/16 18:42:15;;;;;;;631.15;575.99;;;;;;;;;;;;;-59
2022/03/16 18:45:15;;;;;;;628.59;573.41;;;;;;;;;;;;;-59
2022/03/16 18:48:16;;;;;;;624.71;569.85;;;;;;;;;;;;;-60
2022/03/16 18:51:19;;;;;;;622.95;568.01;;;;;;;;;;;;;-59
2022/03/16 18:54:15;;;;;;;620.33;565.49;;;;;;;;;;;;;-60
2022/03/16 18:57:15;;;;;;;626.17;571.25;;;;;;;;;;;;;-59
2022/03/16 19:00:15;;;;;;;626.89;571.96;;;;;;;;;;;;;-59
2022/03/16 19:03:15;;;;;;;621.45;566.70;;;;;;;;;;;;;-57
2022/03/16 19:06:20;;;;;;;625.12;570.15;;;;;;;;;;;;;-56
2022/03/16 19:09:16;;;;;;;622.71;567.89;;;;;;;;;;;;;-58
2022/03/16 19:15:15;;;;;;;621.41;566.77;;;;;;;;;;;;;-57
2022/03/16 19:18:16;;;;;;;618.53;563.95;;;;;;;;;;;;;-58
2022/03/16 19:21:15;;;;;;;619.75;565.03;;;;;;;;;;;;;-57
2022/03/16 19:24:18;;;;;;;620.09;565.37;;;;;;;;;;;;;-56
2022/03/16 19:27:15;;;;;;;619.67;564.94;;;;;;;;;;;;;-58
2022/03/16 19:30:15;;;;;;;621.81;567.01;;;;;;;;;;;;;-60
2022/03/16 19:33:15;;;;;;;617.51;562.97;;;;;;;;;;;;;-57
2022/03/16 19:36:15;;;;;;;616.75;562.25;;;;;;;;;;;;;-56
2022/03/16 19:39:15;;;;;;;617.05;562.59;;;;;;;;;;;;;-59
2022/03/16 19:42:15;;;;;;;618.85;564.29;;;;;;;;;;;;;-56
2022/03/16 19:45:15;;;;;;;619.60;564.86;;;;;;;;;;;;;-57
2022/03/16 19:48:15;;;;;;;620.29;565.69;;;;;;;;;;;;;-58
2022/03/16 19:51:16;;;;;;;617.11;562.51;;;;;;;;;;;;;-58
2022/03/16 19:54:15;;;;;;;617.03;562.62;;;;;;;;;;;;;-59
2022/03/16 19:57:15;;;;;;;615.85;561.29;;;;;;;;;;;;;-59
2022/03/16 20:00:15;;;;;;;612.98;558.63;;;;;;;;;;;;;-55
2022/03/16 20:03:16;;;;;;;614.76;560.56;;;;;;;;;;;;;-57
2022/03/16 20:06:15;;;;;;;611.31;556.92;;;;;;;;;;;;;-55
2022/03/16 20:09:15;;;;;;;616.06;561.66;;;;;;;;;;;;;-59
2022/03/16 20:12:15;;;;;;;613.89;559.57;;;;;;;;;;;;;-59
2022/03/16 20:15:15;;;;;;;613.14;558.78;;;;;;;;;;;;;-56
2022/03/16 20:18:15;;;;;;;610.95;556.67;;;;;;;;;;;;;-59
2022/03/16 20:21:15;;;;;;;613.67;559.34;;;;;;;;;;;;;-59
2022/03/16 20:24:15;;;;;;;610.68;556.47;;;;;;;;;;;;;-59
2022/03/16 20:27:15;;;;;;;613.57;559.25;;;;;;;;;;;;;-59
2022/03/16 20:30:15;;;;;;;612.88;558.22;;;;;;;;;;;;;-59
2022/03/16 20:33:15;;;;;;;601.51;547.41;;;;;;;;;;;;;-57
2022/03/16 20:36:15;;;;;;;604.97;550.81;;;;;;;;;;;;;-56
2022/03/16 20:39:15;;;;;;;606.82;552.76;;;;;;;;;;;;;-62
2022/03/16 20:42:15;;;;;;;608.73;554.35;;;;;;;;;;;;;-60
2022/03/16 20:45:15;;;;;;;601.17;546.93;;;;;;;;;;;;;-60
2022/03/16 20:48:15;;;;;;;607.16;552.99;;;;;;;;;;;;;-62
2022/03/16 20:51:15;;;;;;;605.60;551.56;;;;;;;;;;;;;-61
2022/03/16 20:54:15;;;;;;;608.69;554.57;;;;;;;;;;;;;-50
2022/03/16 20:57:15;;;;;;;609.53;555.23;;;;;;;;;;;;;-52
2022/03/16 21:01:00;;;;;;;606.46;552.43;;;;;;;;;;;;;-57
2022/03/16 21:03:15;;;;;;;602.57;548.60;;;;;;;;;;;;;-55
2022/03/16 21:06:15;;;;;;;607.58;553.47;;;;;;;;;;;;;-58
2022/03/16 21:09:15;;;;;;;606.26;552.24;;;;;;;;;;;;;-59
2022/03/16 21:12:15;;;;;;;604.52;550.51;;;;;;;;;;;;;-59
2022/03/16 21:15:15;;;;;;;610.95;556.67;;;;;;;;;;;;;-53
2022/03/16 21:18:15;;;;;;;607.04;552.95;;;;;;;;;;;;;-53
2022/03/16 21:21:15;;;;;;;606.07;551.99;;;;;;;;;;;;;-57
2022/03/16 21:24:16;;;;;;;603.21;549.32;;;;;;;;;;;;;-54
2022/03/16 21:27:15;;;;;;;603.19;549.13;;;;;;;;;;;;;-60
2022/03/16 21:30:16;;;;;;;597.41;543.68;;;;;;;;;;;;;-59
2022/03/16 21:33:15;;;;;;;593.76;540.23;;;;;;;;;;;;;-61
2022/03/16 21:36:15;;;;;;;589.36;536.05;;;;;;;;;;;;;-60
2022/03/16 21:39:15;;;;;;;593.69;540.14;;;;;;;;;;;;;-57
2022/03/16 21:45:41;;;;;;;589.61;536.27;;;;;;;;;;;;;-60
2022/03/16 21:48:16;;;;;;;588.53;535.13;;;;;;;;;;;;;-59
2022/03/16 21:54:15;;;;;;;585.98;532.75;;;;;;;;;;;;;-60
2022/03/16 21:57:15;;;;;;;584.98;531.79;;;;;;;;;;;;;-60
2022/03/16 22:00:21;;;;;;;580.69;527.75;;;;;;;;;;;;;-60
2022/03/16 22:03:15;;;;;;;581.67;528.63;;;;;;;;;;;;;-60
2022/03/16 22:06:16;;;;;;;580.05;527.14;;;;;;;;;;;;;-60
2022/03/16 22:09:15;;;;;;;581.17;528.14;;;;;;;;;;;;;-61
2022/03/16 22:12:15;;;;;;;582.16;529.05;;;;;;;;;;;;;-59
2022/03/16 22:15:15;;;;;;;582.65;529.52;;;;;;;;;;;;;-60
2022/03/16 22:18:15;;;;;;;574.88;522.24;;;;;;;;;;;;;-60
2022/03/16 22:21:24;;;;;;;577.65;524.75;;;;;;;;;;;;;-60
2022/03/16 22:24:15;;;;;;;577.75;524.85;;;;;;;;;;;;;-60